createdAt,value
2018-12-09T00:00:31.079Z,7.7
2018-12-09T00:01:38.015Z,7.7
2018-12-09T00:02:44.962Z,7.7
2018-12-09T00:03:52.163Z,7.7
2018-12-09T00:04:59.383Z,7.8
2018-12-09T00:06:06.605Z,7.8
2018-12-09T00:07:13.806Z,7.7
2018-12-09T00:08:21.024Z,7.7
2018-12-09T00:09:28.241Z,7.7
2018-12-09T00:10:35.445Z,7.7
2018-12-09T00:11:42.690Z,7.7
2018-12-09T00:12:49.617Z,7.7
2018-12-09T00:13:56.836Z,7.7
2018-12-09T00:15:03.768Z,7.7
2018-12-09T00:16:10.983Z,7.7
2018-12-09T00:17:18.192Z,7.7
2018-12-09T00:18:25.411Z,7.7
2018-12-09T00:19:32.617Z,7.7
2018-12-09T00:20:39.563Z,7.7
2018-12-09T00:21:46.765Z,7.7
2018-12-09T00:22:53.981Z,7.8
2018-12-09T00:24:01.187Z,7.7
2018-12-09T00:25:08.143Z,7.8
2018-12-09T00:26:15.404Z,7.8
2018-12-09T00:27:22.675Z,7.7
2018-12-09T00:28:29.865Z,7.7
2018-12-09T00:29:37.081Z,7.8
2018-12-09T00:30:44.285Z,7.8
2018-12-09T00:31:51.228Z,7.8
2018-12-09T00:32:58.185Z,7.9
2018-12-09T00:34:05.397Z,7.9
2018-12-09T00:35:12.598Z,7.9
2018-12-09T00:36:19.817Z,7.8
2018-12-09T00:37:27.022Z,7.8
2018-12-09T00:38:34.245Z,7.9
2018-12-09T00:39:41.457Z,7.9
2018-12-09T00:40:48.678Z,7.9
2018-12-09T00:41:55.881Z,7.9
2018-12-09T00:43:02.819Z,7.9
2018-12-09T00:44:10.020Z,7.9
2018-12-09T00:45:16.973Z,7.9
2018-12-09T00:46:24.177Z,7.9
2018-12-09T00:47:31.125Z,7.9
2018-12-09T00:48:38.328Z,7.9
2018-12-09T00:49:45.545Z,7.9
2018-12-09T00:50:52.743Z,7.9
2018-12-09T00:51:59.968Z,7.9
2018-12-09T00:53:07.168Z,7.9
2018-12-09T00:54:14.203Z,8
2018-12-09T00:55:21.411Z,8
2018-12-09T00:56:28.627Z,8
2018-12-09T00:57:35.831Z,7.9
2018-12-09T00:58:42.776Z,8
2018-12-09T00:59:49.712Z,7.9
2018-12-09T01:00:56.927Z,8
2018-12-09T01:02:04.131Z,7.9
2018-12-09T01:03:11.354Z,7.9
2018-12-09T01:04:18.286Z,7.9
2018-12-09T01:05:25.500Z,7.9
2018-12-09T01:06:32.703Z,7.9
2018-12-09T01:07:39.925Z,7.9
2018-12-09T01:08:47.126Z,7.9
2018-12-09T01:09:54.074Z,7.9
2018-12-09T01:11:01.281Z,7.9
2018-12-09T01:12:08.224Z,7.9
2018-12-09T01:13:15.428Z,7.9
2018-12-09T01:14:22.646Z,7.9
2018-12-09T01:15:29.848Z,7.9
2018-12-09T01:16:37.069Z,7.9
2018-12-09T01:17:44.266Z,7.9
2018-12-09T01:18:51.480Z,7.9
2018-12-09T01:19:58.683Z,7.9
2018-12-09T01:21:05.636Z,7.9
2018-12-09T01:22:12.840Z,7.9
2018-12-09T01:23:20.062Z,7.9
2018-12-09T01:24:27.267Z,7.9
2018-12-09T01:25:34.487Z,7.9
2018-12-09T01:26:41.693Z,7.9
2018-12-09T01:27:48.923Z,7.9
2018-12-09T01:28:56.115Z,7.9
2018-12-09T01:30:03.552Z,7.9
2018-12-09T01:31:10.476Z,7.9
2018-12-09T01:32:17.421Z,7.9
2018-12-09T01:33:24.624Z,7.9
2018-12-09T01:34:31.569Z,7.8
2018-12-09T01:35:38.780Z,7.9
2018-12-09T01:36:46.000Z,7.8
2018-12-09T01:37:53.060Z,7.8
2018-12-09T01:39:00.288Z,7.8
2018-12-09T01:40:07.493Z,7.8
2018-12-09T01:41:14.709Z,7.8
2018-12-09T01:42:21.914Z,7.8
2018-12-09T01:43:29.130Z,7.8
2018-12-09T01:44:36.330Z,7.8
2018-12-09T01:45:43.003Z,7.8
2018-12-09T01:46:50.208Z,7.8
2018-12-09T01:47:57.425Z,7.8
2018-12-09T01:49:04.624Z,7.7
2018-12-09T01:50:11.840Z,7.7
2018-12-09T01:51:19.046Z,7.7
2018-12-09T01:52:26.327Z,7.7
2018-12-09T01:53:33.540Z,7.7
2018-12-09T01:54:40.480Z,7.7
2018-12-09T01:55:47.686Z,7.7
2018-12-09T01:56:54.906Z,7.7
2018-12-09T01:58:01.837Z,7.7
2018-12-09T01:59:09.048Z,7.7
2018-12-09T02:00:16.254Z,7.7
2018-12-09T02:01:23.472Z,7.7
2018-12-09T02:02:30.677Z,7.7
2018-12-09T02:03:37.894Z,7.7
2018-12-09T02:04:45.098Z,7.7
2018-12-09T02:05:52.157Z,7.7
2018-12-09T02:06:59.365Z,7.7
2018-12-09T02:08:06.579Z,7.7
2018-12-09T02:09:13.787Z,7.7
2018-12-09T02:10:20.731Z,7.7
2018-12-09T02:11:27.931Z,7.7
2018-12-09T02:12:35.145Z,7.7
2018-12-09T02:13:42.346Z,7.7
2018-12-09T02:14:49.289Z,7.6
2018-12-09T02:15:55.941Z,7.7
2018-12-09T02:17:02.920Z,7.6
2018-12-09T02:18:09.848Z,7.6
2018-12-09T02:19:17.072Z,7.6
2018-12-09T02:20:24.275Z,7.6
2018-12-09T02:21:31.494Z,7.6
2018-12-09T02:22:38.425Z,7.6
2018-12-09T02:23:45.720Z,7.7
2018-12-09T02:24:52.925Z,7.7
2018-12-09T02:26:00.144Z,7.7
2018-12-09T02:27:07.348Z,7.7
2018-12-09T02:28:14.288Z,7.6
2018-12-09T02:29:21.492Z,7.7
2018-12-09T02:30:28.706Z,7.7
2018-12-09T02:31:35.914Z,7.7
2018-12-09T02:32:43.126Z,7.7
2018-12-09T02:33:50.331Z,7.7
2018-12-09T02:34:57.543Z,7.7
2018-12-09T02:36:04.767Z,7.6
2018-12-09T02:37:11.994Z,7.7
2018-12-09T02:38:19.200Z,7.7
2018-12-09T02:39:26.419Z,7.7
2018-12-09T02:40:33.624Z,7.7
2018-12-09T02:41:40.841Z,7.7
2018-12-09T02:42:48.047Z,7.7
2018-12-09T02:43:54.984Z,7.7
2018-12-09T02:45:02.186Z,7.7
2018-12-09T02:46:09.405Z,7.7
2018-12-09T02:47:16.611Z,7.7
2018-12-09T02:48:23.827Z,7.7
2018-12-09T02:49:31.090Z,7.7
2018-12-09T02:50:38.306Z,7.7
2018-12-09T02:51:45.507Z,7.7
2018-12-09T02:52:52.724Z,7.7
2018-12-09T02:53:59.654Z,7.8
2018-12-09T02:55:06.876Z,7.8
2018-12-09T02:56:14.078Z,7.8
2018-12-09T02:57:21.324Z,7.8
2018-12-09T02:58:28.523Z,7.8
2018-12-09T02:59:35.740Z,7.8
2018-12-09T03:00:42.945Z,7.8
2018-12-09T03:01:50.159Z,7.7
2018-12-09T03:02:57.361Z,7.8
2018-12-09T03:04:04.582Z,7.7
2018-12-09T03:05:11.515Z,7.8
2018-12-09T03:06:18.737Z,7.7
2018-12-09T03:07:25.680Z,7.8
2018-12-09T03:08:32.895Z,7.7
2018-12-09T03:09:40.100Z,7.7
2018-12-09T03:10:47.314Z,7.7
2018-12-09T03:11:54.248Z,7.7
2018-12-09T03:13:01.468Z,7.7
2018-12-09T03:14:08.402Z,7.7
2018-12-09T03:15:15.336Z,7.6
2018-12-09T03:16:22.541Z,7.7
2018-12-09T03:17:29.759Z,7.7
2018-12-09T03:18:36.969Z,7.6
2018-12-09T03:19:44.189Z,7.7
2018-12-09T03:20:51.742Z,7.6
2018-12-09T03:21:59.174Z,7.6
2018-12-09T03:23:07.561Z,7.6
2018-12-09T03:24:15.957Z,7.6
2018-12-09T03:25:24.114Z,7.5
2018-12-09T03:26:31.915Z,7.5
2018-12-09T03:27:39.266Z,7.5
2018-12-09T03:28:46.676Z,7.5
2018-12-09T03:29:53.889Z,7.5
2018-12-09T03:31:01.114Z,7.5
2018-12-09T03:32:08.312Z,7.5
2018-12-09T03:33:15.531Z,7.4
2018-12-09T03:34:22.734Z,7.4
2018-12-09T03:35:29.683Z,7.4
2018-12-09T03:36:36.976Z,7.4
2018-12-09T03:37:43.913Z,7.4
2018-12-09T03:38:51.120Z,7.4
2018-12-09T03:39:58.344Z,7.4
2018-12-09T03:41:05.545Z,7.4
2018-12-09T03:42:12.762Z,7.5
2018-12-09T03:43:19.967Z,7.5
2018-12-09T03:44:27.183Z,7.5
2018-12-09T03:45:34.386Z,7.5
2018-12-09T03:46:41.604Z,7.5
2018-12-09T03:47:48.618Z,7.5
2018-12-09T03:48:55.840Z,7.6
2018-12-09T03:50:02.768Z,7.6
2018-12-09T03:51:09.158Z,7.6
2018-12-09T03:52:16.359Z,7.6
2018-12-09T03:53:23.586Z,7.6
2018-12-09T03:54:30.507Z,7.6
2018-12-09T03:55:37.729Z,7.6
2018-12-09T03:56:44.938Z,7.6
2018-12-09T03:57:51.878Z,7.6
2018-12-09T03:58:59.083Z,7.6
2018-12-09T04:00:06.316Z,7.7
2018-12-09T04:01:13.230Z,7.7
2018-12-09T04:02:20.180Z,7.7
2018-12-09T04:03:27.614Z,7.7
2018-12-09T04:04:34.832Z,7.7
2018-12-09T04:05:42.032Z,7.6
2018-12-09T04:06:49.248Z,7.6
2018-12-09T04:07:56.459Z,7.5
2018-12-09T04:09:03.670Z,7.5
2018-12-09T04:10:10.331Z,7.5
2018-12-09T04:11:17.546Z,7.5
2018-12-09T04:12:24.754Z,7.5
2018-12-09T04:13:31.701Z,7.5
2018-12-09T04:14:38.911Z,7.5
2018-12-09T04:15:46.138Z,7.6
2018-12-09T04:16:53.337Z,7.6
2018-12-09T04:18:00.284Z,7.6
2018-12-09T04:19:07.497Z,7.6
2018-12-09T04:20:14.728Z,7.6
2018-12-09T04:21:21.935Z,7.6
2018-12-09T04:22:29.149Z,7.6
2018-12-09T04:23:36.350Z,7.6
2018-12-09T04:24:43.300Z,7.6
2018-12-09T04:25:50.507Z,7.6
2018-12-09T04:26:57.452Z,7.6
2018-12-09T04:28:04.651Z,7.6
2018-12-09T04:29:11.872Z,7.5
2018-12-09T04:30:19.075Z,7.5
2018-12-09T04:31:26.286Z,7.5
2018-12-09T04:32:33.223Z,7.5
2018-12-09T04:33:40.434Z,7.5
2018-12-09T04:34:47.638Z,7.5
2018-12-09T04:35:54.850Z,7.6
2018-12-09T04:37:02.074Z,7.6
2018-12-09T04:38:09.031Z,7.5
2018-12-09T04:39:16.239Z,7.4
2018-12-09T04:40:23.453Z,7.4
2018-12-09T04:41:30.664Z,7.4
2018-12-09T04:42:37.347Z,7.4
2018-12-09T04:43:44.704Z,7.3
2018-12-09T04:44:51.644Z,7.3
2018-12-09T04:45:58.565Z,7.3
2018-12-09T04:47:05.798Z,7.4
2018-12-09T04:48:12.723Z,7.4
2018-12-09T04:49:19.935Z,7.3
2018-12-09T04:50:26.868Z,7.3
2018-12-09T04:51:34.086Z,7.3
2018-12-09T04:52:41.294Z,7.3
2018-12-09T04:53:48.515Z,7.2
2018-12-09T04:54:55.717Z,7.2
2018-12-09T04:56:02.662Z,7.2
2018-12-09T04:57:09.871Z,7.2
2018-12-09T04:58:16.809Z,7.2
2018-12-09T04:59:24.032Z,7.2
2018-12-09T05:00:30.975Z,7.2
2018-12-09T05:01:38.180Z,7.2
2018-12-09T05:02:45.122Z,7.2
2018-12-09T05:03:52.141Z,7.2
2018-12-09T05:04:59.081Z,7.2
2018-12-09T05:06:06.016Z,7.2
2018-12-09T05:07:13.236Z,7.2
2018-12-09T05:08:20.158Z,7.2
2018-12-09T05:09:27.373Z,7.2
2018-12-09T05:10:34.583Z,7.1
2018-12-09T05:11:41.799Z,7.2
2018-12-09T05:12:48.733Z,7.2
2018-12-09T05:13:55.677Z,7.2
2018-12-09T05:15:02.894Z,7.2
2018-12-09T05:16:09.562Z,7.1
2018-12-09T05:17:15.932Z,7.1
2018-12-09T05:18:22.884Z,7.1
2018-12-09T05:19:30.082Z,7.1
2018-12-09T05:20:37.302Z,7.1
2018-12-09T05:21:44.515Z,7.1
2018-12-09T05:22:51.806Z,7
2018-12-09T05:23:58.734Z,7
2018-12-09T05:25:05.953Z,7
2018-12-09T05:26:13.154Z,7
2018-12-09T05:27:20.101Z,6.9
2018-12-09T05:28:27.304Z,7
2018-12-09T05:29:34.247Z,7
2018-12-09T05:30:41.167Z,7
2018-12-09T05:31:48.383Z,7
2018-12-09T05:32:55.594Z,7
2018-12-09T05:34:02.810Z,7
2018-12-09T05:35:09.825Z,7
2018-12-09T05:36:16.954Z,7
2018-12-09T05:37:24.044Z,7
2018-12-09T05:38:31.429Z,7
2018-12-09T05:39:38.542Z,7
2018-12-09T05:40:45.935Z,7
2018-12-09T05:41:53.300Z,7
2018-12-09T05:43:00.723Z,6.9
2018-12-09T05:44:07.989Z,6.9
2018-12-09T05:45:15.107Z,6.9
2018-12-09T05:46:22.443Z,6.9
2018-12-09T05:47:29.584Z,6.8
2018-12-09T05:48:37.060Z,6.8
2018-12-09T05:49:44.344Z,6.7
2018-12-09T05:50:51.509Z,6.7
2018-12-09T05:51:58.776Z,6.8
2018-12-09T05:53:06.013Z,6.8
2018-12-09T05:54:13.130Z,6.8
2018-12-09T05:55:20.527Z,6.7
2018-12-09T05:56:27.820Z,6.7
2018-12-09T05:57:35.146Z,6.7
2018-12-09T05:58:42.360Z,6.7
2018-12-09T05:59:49.741Z,6.7
2018-12-09T06:00:56.846Z,6.7
2018-12-09T06:02:04.161Z,6.7
2018-12-09T06:03:11.475Z,6.7
2018-12-09T06:04:18.850Z,6.7
2018-12-09T06:05:26.071Z,6.7
2018-12-09T06:06:32.590Z,6.7
2018-12-09T06:07:40.027Z,6.7
2018-12-09T06:08:47.084Z,6.8
2018-12-09T06:09:54.560Z,6.8
2018-12-09T06:11:01.922Z,6.8
2018-12-09T06:12:09.468Z,6.8
2018-12-09T06:13:16.797Z,6.8
2018-12-09T06:14:24.061Z,6.8
2018-12-09T06:15:31.196Z,6.8
2018-12-09T06:16:38.378Z,6.9
2018-12-09T06:17:45.673Z,6.8
2018-12-09T06:18:52.887Z,6.8
2018-12-09T06:20:00.309Z,6.8
2018-12-09T06:21:07.550Z,6.8
2018-12-09T06:22:14.751Z,6.9
2018-12-09T06:23:21.700Z,6.9
2018-12-09T06:24:28.707Z,6.9
2018-12-09T06:25:35.802Z,6.8
2018-12-09T06:26:43.069Z,6.8
2018-12-09T06:27:50.029Z,6.7
2018-12-09T06:28:57.387Z,6.7
2018-12-09T06:30:04.463Z,6.7
2018-12-09T06:31:11.747Z,6.7
2018-12-09T06:32:19.177Z,6.7
2018-12-09T06:33:26.542Z,6.7
2018-12-09T06:34:33.861Z,6.7
2018-12-09T06:35:41.108Z,6.7
2018-12-09T06:36:48.501Z,6.6
2018-12-09T06:37:55.705Z,6.7
2018-12-09T06:39:03.050Z,6.7
2018-12-09T06:40:10.252Z,6.7
2018-12-09T06:41:17.331Z,6.7
2018-12-09T06:42:24.774Z,6.7
2018-12-09T06:43:31.838Z,6.7
2018-12-09T06:44:39.206Z,6.8
2018-12-09T06:45:46.491Z,6.7
2018-12-09T06:46:53.818Z,6.7
2018-12-09T06:48:01.085Z,6.6
2018-12-09T06:49:08.457Z,6.6
2018-12-09T06:50:15.733Z,6.5
2018-12-09T06:51:23.037Z,6.5
2018-12-09T06:52:30.847Z,6.6
2018-12-09T06:53:38.282Z,6.6
2018-12-09T06:54:45.957Z,6.6
2018-12-09T06:55:55.319Z,6.6
2018-12-09T06:57:02.672Z,6.6
2018-12-09T06:58:10.044Z,6.6
2018-12-09T06:59:17.509Z,6.6
2018-12-09T07:00:24.981Z,6.6
2018-12-09T07:01:32.381Z,6.6
2018-12-09T07:02:40.108Z,6.6
2018-12-09T07:03:47.365Z,6.6
2018-12-09T07:04:54.958Z,6.6
2018-12-09T07:06:02.564Z,6.6
2018-12-09T07:07:10.257Z,6.7
2018-12-09T07:08:18.089Z,6.7
2018-12-09T07:09:25.713Z,6.7
2018-12-09T07:10:33.280Z,6.7
2018-12-09T07:11:40.857Z,6.7
2018-12-09T07:12:48.454Z,6.7
2018-12-09T07:13:55.944Z,6.8
2018-12-09T07:15:03.455Z,6.8
2018-12-09T07:16:10.855Z,6.7
2018-12-09T07:17:18.218Z,6.7
2018-12-09T07:18:25.539Z,6.7
2018-12-09T07:19:32.917Z,6.7
2018-12-09T07:20:40.279Z,6.8
2018-12-09T07:21:47.426Z,6.8
2018-12-09T07:22:55.002Z,6.7
2018-12-09T07:24:01.928Z,6.8
2018-12-09T07:25:09.230Z,6.8
2018-12-09T07:26:16.848Z,6.7
2018-12-09T07:27:24.283Z,6.8
2018-12-09T07:28:31.061Z,6.8
2018-12-09T07:29:38.529Z,6.8
2018-12-09T07:30:45.932Z,6.8
2018-12-09T07:31:53.630Z,6.8
2018-12-09T07:33:01.078Z,6.8
2018-12-09T07:34:08.604Z,6.8
2018-12-09T07:35:16.093Z,6.8
2018-12-09T07:36:23.146Z,6.9
2018-12-09T07:37:30.874Z,6.9
2018-12-09T07:38:38.289Z,6.9
2018-12-09T07:39:45.983Z,6.9
2018-12-09T07:40:54.749Z,6.9
2018-12-09T07:42:01.705Z,6.8
2018-12-09T07:43:08.995Z,6.9
2018-12-09T07:44:16.006Z,6.9
2018-12-09T07:45:23.407Z,6.9
2018-12-09T07:46:30.628Z,6.9
2018-12-09T07:47:38.191Z,6.9
2018-12-09T07:48:45.745Z,6.9
2018-12-09T07:49:53.244Z,6.9
2018-12-09T07:51:00.610Z,6.9
2018-12-09T07:52:07.539Z,6.9
2018-12-09T07:53:14.753Z,6.9
2018-12-09T07:54:21.954Z,6.9
2018-12-09T07:55:29.176Z,6.9
2018-12-09T07:56:36.380Z,6.9
2018-12-09T07:57:43.591Z,6.9
2018-12-09T07:58:50.873Z,6.9
2018-12-09T07:59:58.097Z,6.9
2018-12-09T08:01:05.297Z,6.9
2018-12-09T08:02:12.513Z,6.9
2018-12-09T08:03:19.711Z,6.9
2018-12-09T08:04:26.928Z,6.9
2018-12-09T08:05:34.137Z,6.9
2018-12-09T08:06:41.335Z,6.9
2018-12-09T08:07:48.620Z,6.9
2018-12-09T08:08:57.440Z,6.9
2018-12-09T08:10:04.642Z,6.9
2018-12-09T08:11:11.867Z,6.9
2018-12-09T08:12:18.799Z,6.9
2018-12-09T08:13:25.744Z,7
2018-12-09T08:14:32.950Z,7
2018-12-09T08:15:40.156Z,6.9
2018-12-09T08:16:47.365Z,6.9
2018-12-09T08:17:54.579Z,6.9
2018-12-09T08:19:01.779Z,6.9
2018-12-09T08:20:08.735Z,6.9
2018-12-09T08:21:15.937Z,6.9
2018-12-09T08:22:23.155Z,7
2018-12-09T08:23:30.081Z,7
2018-12-09T08:24:37.286Z,7
2018-12-09T08:25:44.507Z,7
2018-12-09T08:26:51.459Z,7.1
2018-12-09T08:27:58.651Z,7.1
2018-12-09T08:29:05.882Z,7.1
2018-12-09T08:30:13.094Z,7.1
2018-12-09T08:31:20.308Z,7.1
2018-12-09T08:32:27.231Z,7.2
2018-12-09T08:33:34.435Z,7.2
2018-12-09T08:34:41.368Z,7.2
2018-12-09T08:35:48.588Z,7.1
2018-12-09T08:36:55.859Z,7.1
2018-12-09T08:38:03.074Z,7.1
2018-12-09T08:39:10.012Z,7.1
2018-12-09T08:40:17.234Z,7.1
2018-12-09T08:41:24.169Z,7.1
2018-12-09T08:42:31.391Z,7.1
2018-12-09T08:43:38.619Z,7.1
2018-12-09T08:44:45.841Z,7.1
2018-12-09T08:45:53.047Z,7.1
2018-12-09T08:47:00.274Z,7.1
2018-12-09T08:48:07.477Z,7.1
2018-12-09T08:49:14.423Z,7.1
2018-12-09T08:50:21.625Z,7.1
2018-12-09T08:51:28.847Z,7.1
2018-12-09T08:52:36.056Z,7.1
2018-12-09T08:53:43.280Z,7.1
2018-12-09T08:54:50.484Z,7.1
2018-12-09T08:55:57.699Z,7.1
2018-12-09T08:57:04.641Z,7.1
2018-12-09T08:58:11.578Z,7.2
2018-12-09T08:59:18.789Z,7.2
2018-12-09T09:00:25.725Z,7.2
2018-12-09T09:01:32.932Z,7.2
2018-12-09T09:02:39.909Z,7.3
2018-12-09T09:03:47.117Z,7.3
2018-12-09T09:04:54.327Z,7.3
2018-12-09T09:06:01.259Z,7.3
2018-12-09T09:07:08.485Z,7.3
2018-12-09T09:08:15.683Z,7.3
2018-12-09T09:09:22.907Z,7.3
2018-12-09T09:10:30.118Z,7.3
2018-12-09T09:11:37.339Z,7.3
2018-12-09T09:12:44.549Z,7.3
2018-12-09T09:13:51.768Z,7.3
2018-12-09T09:14:58.986Z,7.3
2018-12-09T09:16:06.208Z,7.3
2018-12-09T09:17:13.415Z,7.3
2018-12-09T09:18:20.630Z,7.4
2018-12-09T09:19:27.832Z,7.3
2018-12-09T09:20:34.771Z,7.3
2018-12-09T09:21:41.972Z,7.4
2018-12-09T09:22:48.926Z,7.4
2018-12-09T09:23:56.133Z,7.4
2018-12-09T09:25:03.359Z,7.4
2018-12-09T09:26:10.561Z,7.4
2018-12-09T09:27:17.789Z,7.4
2018-12-09T09:28:25.015Z,7.4
2018-12-09T09:29:32.232Z,7.4
2018-12-09T09:30:39.167Z,7.4
2018-12-09T09:31:46.116Z,7.5
2018-12-09T09:32:53.319Z,7.5
2018-12-09T09:33:59.990Z,7.5
2018-12-09T09:35:07.196Z,7.5
2018-12-09T09:36:14.147Z,7.5
2018-12-09T09:37:21.356Z,7.5
2018-12-09T09:38:28.574Z,7.5
2018-12-09T09:39:35.788Z,7.5
2018-12-09T09:40:43.009Z,7.5
2018-12-09T09:41:50.245Z,7.5
2018-12-09T09:42:57.467Z,7.6
2018-12-09T09:44:04.683Z,7.6
2018-12-09T09:45:11.906Z,7.6
2018-12-09T09:46:19.120Z,7.6
2018-12-09T09:47:26.340Z,7.6
2018-12-09T09:48:33.270Z,7.6
2018-12-09T09:49:40.502Z,7.6
2018-12-09T09:50:47.726Z,7.6
2018-12-09T09:51:54.998Z,7.7
2018-12-09T09:53:02.193Z,7.7
2018-12-09T09:54:09.418Z,7.7
2018-12-09T09:55:16.662Z,7.7
2018-12-09T09:56:23.617Z,7.7
2018-12-09T09:57:30.817Z,7.7
2018-12-09T09:58:38.041Z,7.7
2018-12-09T09:59:44.969Z,7.7
2018-12-09T10:00:51.915Z,7.7
2018-12-09T10:01:59.120Z,7.7
2018-12-09T10:03:06.339Z,7.7
2018-12-09T10:04:13.558Z,7.7
2018-12-09T10:05:20.770Z,7.7
2018-12-09T10:06:28.020Z,7.8
2018-12-09T10:07:35.251Z,7.8
2018-12-09T10:08:42.189Z,7.8
2018-12-09T10:09:49.137Z,7.8
2018-12-09T10:10:56.342Z,7.8
2018-12-09T10:12:03.288Z,7.9
2018-12-09T10:13:10.494Z,7.8
2018-12-09T10:14:17.715Z,7.9
2018-12-09T10:15:24.652Z,7.9
2018-12-09T10:16:31.973Z,7.9
2018-12-09T10:17:39.244Z,7.9
2018-12-09T10:18:46.448Z,7.9
2018-12-09T10:19:53.659Z,7.9
2018-12-09T10:21:00.606Z,7.9
2018-12-09T10:22:07.642Z,7.9
2018-12-09T10:23:16.639Z,7.9
2018-12-09T10:24:23.836Z,7.9
2018-12-09T10:25:31.059Z,7.9
2018-12-09T10:26:38.276Z,7.9
2018-12-09T10:27:45.487Z,7.8
2018-12-09T10:28:52.426Z,7.9
2018-12-09T10:29:59.107Z,7.8
2018-12-09T10:31:06.312Z,7.8
2018-12-09T10:32:13.274Z,7.9
2018-12-09T10:33:20.208Z,7.9
2018-12-09T10:34:27.444Z,7.9
2018-12-09T10:35:34.656Z,7.9
2018-12-09T10:36:41.862Z,7.9
2018-12-09T10:37:49.066Z,7.8
2018-12-09T10:38:56.027Z,7.8
2018-12-09T10:40:03.247Z,7.8
2018-12-09T10:41:10.493Z,7.8
2018-12-09T10:42:17.683Z,7.7
2018-12-09T10:43:24.902Z,7.7
2018-12-09T10:44:32.115Z,7.7
2018-12-09T10:45:39.345Z,7.6
2018-12-09T10:46:46.556Z,7.6
2018-12-09T10:47:53.503Z,7.6
2018-12-09T10:49:00.727Z,7.6
2018-12-09T10:50:07.689Z,7.6
2018-12-09T10:51:14.899Z,7.7
2018-12-09T10:52:22.125Z,7.7
2018-12-09T10:53:29.060Z,7.7
2018-12-09T10:54:36.287Z,7.8
2018-12-09T10:55:43.219Z,7.8
2018-12-09T10:56:50.435Z,7.8
2018-12-09T10:57:57.894Z,7.8
2018-12-09T10:59:05.118Z,7.9
2018-12-09T11:00:12.062Z,7.9
2018-12-09T11:01:19.288Z,8
2018-12-09T11:02:26.493Z,8
2018-12-09T11:03:33.536Z,8
2018-12-09T11:04:40.739Z,8.1
2018-12-09T11:05:47.691Z,8.1
2018-12-09T11:06:54.900Z,8.1
2018-12-09T11:08:02.125Z,8
2018-12-09T11:09:09.335Z,8
2018-12-09T11:10:16.294Z,7.9
2018-12-09T11:11:23.510Z,7.9
2018-12-09T11:12:30.738Z,7.9
2018-12-09T11:13:37.941Z,7.9
2018-12-09T11:14:45.166Z,7.9
2018-12-09T11:15:52.384Z,8
2018-12-09T11:16:59.609Z,8
2018-12-09T11:18:06.619Z,7.9
2018-12-09T11:19:13.296Z,7.9
2018-12-09T11:20:20.450Z,7.9
2018-12-09T11:21:31.403Z,7.9
2018-12-09T11:22:38.353Z,7.9
2018-12-09T11:23:45.580Z,7.9
2018-12-09T11:24:52.789Z,7.9
2018-12-09T11:26:00.022Z,7.9
2018-12-09T11:27:07.239Z,7.8
2018-12-09T11:28:14.475Z,7.8
2018-12-09T11:29:21.697Z,7.8
2018-12-09T11:30:28.932Z,7.8
2018-12-09T11:31:36.163Z,7.8
2018-12-09T11:32:43.384Z,7.9
2018-12-09T11:33:50.047Z,7.9
2018-12-09T11:34:57.018Z,7.9
2018-12-09T11:36:03.958Z,7.9
2018-12-09T11:37:10.918Z,8
2018-12-09T11:38:18.137Z,7.9
2018-12-09T11:39:24.815Z,7.9
2018-12-09T11:40:31.769Z,7.9
2018-12-09T11:41:38.989Z,8
2018-12-09T11:42:46.219Z,8
2018-12-09T11:43:53.190Z,8
2018-12-09T11:45:00.415Z,8.1
2018-12-09T11:46:07.672Z,8.1
2018-12-09T11:47:14.984Z,8.1
2018-12-09T11:48:22.417Z,8.1
2018-12-09T11:49:29.394Z,8.1
2018-12-09T11:50:36.420Z,8.1
2018-12-09T11:51:43.650Z,8.1
2018-12-09T11:52:50.882Z,8.1
2018-12-09T11:53:58.104Z,8
2018-12-09T11:55:05.328Z,8.1
2018-12-09T11:56:12.549Z,8.1
2018-12-09T11:57:19.788Z,8.2
2018-12-09T11:58:27.018Z,8.1
2018-12-09T11:59:34.486Z,8.2
2018-12-09T12:00:41.697Z,8.3
2018-12-09T12:01:48.667Z,8.3
2018-12-09T12:02:55.888Z,8.4
2018-12-09T12:04:03.126Z,8.4
2018-12-09T12:05:10.351Z,8.5
2018-12-09T12:06:17.315Z,8.5
2018-12-09T12:07:24.538Z,8.6
2018-12-09T12:08:31.784Z,8.4
2018-12-09T12:09:39.011Z,8.4
2018-12-09T12:10:46.244Z,8.3
2018-12-09T12:11:53.458Z,8.3
2018-12-09T12:13:00.411Z,8.2
2018-12-09T12:14:07.350Z,8.2
2018-12-09T12:15:14.606Z,8.2
2018-12-09T12:16:21.811Z,8.1
2018-12-09T12:17:28.780Z,8.1
2018-12-09T12:18:35.985Z,8.1
2018-12-09T12:19:42.957Z,8.1
2018-12-09T12:20:50.174Z,8.2
2018-12-09T12:21:57.401Z,8.2
2018-12-09T12:23:04.636Z,8.3
2018-12-09T12:24:11.605Z,8.2
2018-12-09T12:25:18.830Z,8.2
2018-12-09T12:26:26.071Z,8.1
2018-12-09T12:27:33.284Z,8.1
2018-12-09T12:28:40.250Z,8.1
2018-12-09T12:29:47.464Z,8.1
2018-12-09T12:30:54.682Z,8
2018-12-09T12:32:01.907Z,8
2018-12-09T12:33:09.152Z,8
2018-12-09T12:34:16.384Z,7.9
2018-12-09T12:35:23.330Z,7.9
2018-12-09T12:36:30.550Z,7.9
2018-12-09T12:37:37.786Z,7.9
2018-12-09T12:38:45.022Z,7.9
2018-12-09T12:39:52.251Z,7.9
2018-12-09T12:40:59.468Z,7.9
2018-12-09T12:42:06.441Z,7.9
2018-12-09T12:43:13.666Z,7.8
2018-12-09T12:44:20.900Z,7.8
2018-12-09T12:45:27.864Z,7.8
2018-12-09T12:46:35.105Z,7.8
2018-12-09T12:47:42.335Z,7.9
2018-12-09T12:48:49.564Z,7.8
2018-12-09T12:49:56.786Z,7.8
2018-12-09T12:51:04.031Z,7.9
2018-12-09T12:52:11.248Z,7.8
2018-12-09T12:53:18.508Z,7.9
2018-12-09T12:54:25.729Z,7.8
2018-12-09T12:55:32.967Z,7.9
2018-12-09T12:56:40.190Z,7.9
2018-12-09T12:57:47.436Z,7.9
2018-12-09T12:58:54.388Z,7.9
2018-12-09T13:00:01.630Z,7.9
2018-12-09T13:01:08.864Z,7.9
2018-12-09T13:02:16.104Z,7.9
2018-12-09T13:03:23.327Z,7.9
2018-12-09T13:04:30.556Z,7.9
2018-12-09T13:05:37.793Z,7.9
2018-12-09T13:06:45.033Z,7.9
2018-12-09T13:07:52.250Z,7.9
2018-12-09T13:08:59.493Z,7.9
2018-12-09T13:10:06.435Z,7.9
2018-12-09T13:11:13.393Z,7.9
2018-12-09T13:12:20.334Z,7.8
2018-12-09T13:13:27.563Z,7.8
2018-12-09T13:14:34.518Z,7.8
2018-12-09T13:15:41.893Z,7.9
2018-12-09T13:16:48.856Z,7.9
2018-12-09T13:17:56.601Z,7.9
2018-12-09T13:19:03.837Z,7.8
2018-12-09T13:20:11.077Z,7.8
2018-12-09T13:21:18.311Z,7.8
2018-12-09T13:22:25.003Z,7.8
2018-12-09T13:23:32.213Z,7.9
2018-12-09T13:24:39.465Z,7.8
2018-12-09T13:25:46.700Z,7.8
2018-12-09T13:26:53.939Z,7.8
2018-12-09T13:28:00.905Z,7.8
2018-12-09T13:29:07.879Z,7.8
2018-12-09T13:30:15.130Z,7.7
2018-12-09T13:31:22.090Z,7.7
2018-12-09T13:32:28.668Z,7.7
2018-12-09T13:33:35.904Z,7.7
2018-12-09T13:34:43.123Z,7.6
2018-12-09T13:35:50.351Z,7.6
2018-12-09T13:36:57.302Z,7.7
2018-12-09T13:38:04.533Z,7.6
2018-12-09T13:39:11.250Z,7.6
2018-12-09T13:40:18.480Z,7.6
2018-12-09T13:41:25.717Z,7.6
2018-12-09T13:42:32.694Z,7.6
2018-12-09T13:43:39.921Z,7.5
2018-12-09T13:44:47.156Z,7.5
2018-12-09T13:45:54.395Z,7.5
2018-12-09T13:47:01.622Z,7.5
2018-12-09T13:48:08.564Z,7.5
2018-12-09T13:49:16.044Z,7.4
2018-12-09T13:50:23.269Z,7.4
2018-12-09T13:51:30.505Z,7.4
2018-12-09T13:52:37.467Z,7.4
2018-12-09T13:53:44.742Z,7.3
2018-12-09T13:54:51.963Z,7.3
2018-12-09T13:55:59.218Z,7.3
2018-12-09T13:57:06.535Z,7.2
2018-12-09T13:58:13.493Z,7.3
2018-12-09T13:59:20.736Z,7.2
2018-12-09T14:00:28.185Z,7.2
2018-12-09T14:01:35.426Z,7.2
2018-12-09T14:02:42.472Z,7.2
2018-12-09T14:03:49.699Z,7.1
2018-12-09T14:04:56.916Z,7.1
2018-12-09T14:06:03.879Z,7.1
2018-12-09T14:07:10.848Z,7.1
2018-12-09T14:08:18.079Z,7.1
2018-12-09T14:09:25.479Z,7.1
2018-12-09T14:10:32.434Z,7
2018-12-09T14:11:39.686Z,7
2018-12-09T14:12:47.140Z,7
2018-12-09T14:13:54.115Z,7
2018-12-09T14:15:01.449Z,7
2018-12-09T14:16:08.170Z,7
2018-12-09T14:17:15.458Z,7
2018-12-09T14:18:22.564Z,7
2018-12-09T14:19:29.537Z,6.9
2018-12-09T14:20:36.814Z,6.9
2018-12-09T14:21:44.122Z,6.9
2018-12-09T14:22:51.349Z,6.9
2018-12-09T14:23:58.597Z,6.9
2018-12-09T14:25:05.565Z,6.9
2018-12-09T14:26:12.512Z,6.9
2018-12-09T14:27:19.492Z,6.9
2018-12-09T14:28:27.485Z,6.8
2018-12-09T14:29:34.662Z,6.8
2018-12-09T14:30:41.633Z,6.8
2018-12-09T14:31:48.929Z,6.8
2018-12-09T14:32:56.398Z,6.8
2018-12-09T14:34:03.794Z,6.8
2018-12-09T14:35:11.036Z,6.8
2018-12-09T14:36:18.303Z,6.8
2018-12-09T14:37:25.309Z,6.8
2018-12-09T14:38:32.563Z,6.7
2018-12-09T14:39:39.516Z,6.7
2018-12-09T14:40:46.671Z,6.7
2018-12-09T14:41:53.774Z,6.7
2018-12-09T14:43:01.012Z,6.7
2018-12-09T14:44:08.244Z,6.7
2018-12-09T14:45:15.504Z,6.7
2018-12-09T14:46:22.442Z,6.6
2018-12-09T14:47:29.562Z,6.6
2018-12-09T14:48:36.238Z,6.6
2018-12-09T14:49:43.198Z,6.6
2018-12-09T14:50:50.631Z,6.6
2018-12-09T14:51:58.088Z,6.6
2018-12-09T14:53:04.748Z,6.6
2018-12-09T14:54:11.752Z,6.6
2018-12-09T14:55:18.731Z,6.6
2018-12-09T14:56:25.696Z,6.6
2018-12-09T14:57:33.161Z,6.6
2018-12-09T14:58:40.152Z,6.6
2018-12-09T14:59:47.370Z,6.5
2018-12-09T15:00:54.615Z,6.6
2018-12-09T15:02:01.859Z,6.5
2018-12-09T15:03:09.274Z,6.5
2018-12-09T15:04:16.766Z,6.5
2018-12-09T15:05:24.007Z,6.5
2018-12-09T15:06:31.318Z,6.5
2018-12-09T15:07:38.177Z,6.5
2018-12-09T15:08:45.131Z,6.5
2018-12-09T15:09:51.820Z,6.4
2018-12-09T15:10:59.074Z,6.5
2018-12-09T15:12:06.530Z,6.5
2018-12-09T15:13:13.844Z,6.5
2018-12-09T15:14:20.800Z,6.5
2018-12-09T15:15:27.482Z,6.5
2018-12-09T15:16:34.702Z,6.5
2018-12-09T15:17:41.386Z,6.5
2018-12-09T15:18:48.531Z,6.5
2018-12-09T15:19:55.744Z,6.5
2018-12-09T15:21:02.985Z,6.5
2018-12-09T15:22:09.951Z,6.4
2018-12-09T15:23:17.199Z,6.4
2018-12-09T15:24:24.446Z,6.4
2018-12-09T15:25:31.447Z,6.4
2018-12-09T15:26:38.680Z,6.4
2018-12-09T15:27:45.925Z,6.4
2018-12-09T15:28:53.180Z,6.4